Time;durP1;ratioP1;P1;durP2;ratioP2;P2;SDS_P1;SDS_P2;PMS_P1;PMS_P2;Temp;Humidity;BMP_temperature;BMP_pressure;BME280_temperature;BME280_humidity;BME280_pressure;Samples;Min_cycle;Max_cycle;Signal;HPM_P1;HPM_P2
2021/03/02 00:01:07;;;;;;;40.05;16.92;;;;;;;3.39;58.30;95343.03;5131733;27;20520;-79
2021/03/02 00:03:34;;;;;;;35.60;16.52;;;;;;;3.42;58.64;95334.69;5141418;27;20035;-79
2021/03/02 00:06:00;;;;;;;37.17;17.08;;;;;;;3.44;58.36;95343.16;5139984;27;20027;-80
2021/03/02 00:08:27;;;;;;;33.80;15.60;;;;;;;3.49;58.29;95347.72;5133238;27;20477;-79
2021/03/02 00:11:00;;;;;;;38.63;16.45;;;;;;;3.49;58.26;95350.38;5135323;27;20026;-80
2021/03/02 00:13:27;;;;;;;29.98;15.57;;;;;;;3.48;58.38;95354.84;5138202;27;20448;-79
2021/03/02 00:15:52;;;;;;;40.10;17.75;;;;;;;3.49;58.10;95350.38;5141514;27;20485;-80
2021/03/02 00:18:19;;;;;;;36.83;17.63;;;;;;;3.47;58.12;95336.63;5132957;27;20035;-80
2021/03/02 00:20:47;;;;;;;41.53;18.63;;;;;;;3.54;57.90;95339.91;5132728;27;20030;-79
2021/03/02 00:23:25;;;;;;;35.03;17.17;;;;;;;3.57;57.63;95348.16;5135117;27;20569;-80
2021/03/02 00:25:55;;;;;;;42.83;19.27;;;;;;;3.56;57.83;95341.31;5134613;27;20475;-80
2021/03/02 00:28:22;;;;;;;43.35;18.45;;;;;;;3.52;57.96;95344.63;5131292;27;20034;-80
2021/03/02 00:30:50;;;;;;;37.92;17.25;;;;;;;3.53;58.24;95339.13;5138462;27;20023;-80
2021/03/02 00:33:16;;;;;;;30.85;16.85;;;;;;;3.61;57.44;95327.41;5134622;27;20517;-80
2021/03/02 00:35:42;;;;;;;42.95;17.63;;;;;;;3.61;57.46;95330.84;5151633;27;20035;-80
2021/03/02 00:38:07;;;;;;;34.65;17.52;;;;;;;3.64;56.95;95334.84;5152856;27;20039;-80
2021/03/02 00:40:33;;;;;;;35.65;16.08;;;;;;;3.62;56.82;95329.00;5143843;27;20047;-79
2021/03/02 00:42:58;;;;;;;35.38;17.00;;;;;;;3.57;57.27;95323.66;5133545;27;20053;-78
2021/03/02 00:45:24;;;;;;;29.67;15.63;;;;;;;3.54;57.40;95329.38;5152928;27;20018;-79
2021/03/02 00:47:51;;;;;;;30.33;15.85;;;;;;;3.54;57.11;95332.00;5135631;27;20395;-80
2021/03/02 00:50:16;;;;;;;28.50;15.13;;;;;;;3.50;57.17;95326.41;5131229;27;20022;-79
2021/03/02 00:52:41;;;;;;;30.08;16.30;;;;;;;3.49;57.42;95326.66;5132124;27;20034;-80
2021/03/02 00:55:07;;;;;;;34.28;16.48;;;;;;;3.44;57.64;95329.16;5147870;27;20034;-80
2021/03/02 00:57:34;;;;;;;36.70;15.85;;;;;;;3.41;57.83;95339.13;5133605;27;20479;-79
2021/03/02 00:59:59;;;;;;;31.23;15.15;;;;;;;3.41;57.29;95328.59;5150426;27;20461;-79
2021/03/02 01:02:25;;;;;;;35.17;16.27;;;;;;;3.44;57.26;95323.88;5147921;27;20049;-79
2021/03/02 01:04:50;;;;;;;34.63;15.82;;;;;;;3.37;57.20;95332.72;5134232;27;20033;-80
2021/03/02 01:07:16;;;;;;;37.75;18.15;;;;;;;3.28;57.29;95334.13;5132233;27;20027;-79
2021/03/02 01:09:41;;;;;;;37.72;18.55;;;;;;;3.19;58.12;95323.13;5133871;27;20031;-79
2021/03/02 01:12:07;;;;;;;34.30;17.98;;;;;;;3.11;58.39;95317.41;5138595;27;20031;-79
2021/03/02 01:14:33;;;;;;;36.85;17.02;;;;;;;3.07;58.66;95322.31;5130699;27;20034;-78
2021/03/02 01:16:58;;;;;;;30.42;16.80;;;;;;;3.00;58.53;95326.91;5147451;27;20481;-78
2021/03/02 01:19:24;;;;;;;30.92;16.60;;;;;;;2.89;58.67;95325.06;5130893;27;20027;-78
2021/03/02 01:21:50;;;;;;;32.45;16.10;;;;;;;2.87;58.92;95327.94;5132012;27;20027;-79
2021/03/02 01:24:16;;;;;;;30.23;15.85;;;;;;;2.76;59.10;95323.47;5132074;27;20075;-79
2021/03/02 01:26:42;;;;;;;26.77;14.50;;;;;;;2.73;59.35;95331.84;5134203;27;20030;-79
2021/03/02 01:29:08;;;;;;;32.03;15.15;;;;;;;2.81;59.26;95331.50;5131109;27;20023;-79
2021/03/02 01:31:33;;;;;;;39.90;17.33;;;;;;;2.83;59.74;95315.44;5131587;27;20027;-81
2021/03/02 01:33:59;;;;;;;34.53;17.38;;;;;;;2.80;59.80;95306.19;5130348;27;20019;-81
2021/03/02 01:36:25;;;;;;;41.80;19.45;;;;;;;2.76;59.45;95305.81;5145502;27;20508;-81
2021/03/02 01:38:50;;;;;;;42.55;18.98;;;;;;;2.79;59.54;95299.31;5130165;27;20030;-80
2021/03/02 01:41:16;;;;;;;44.40;20.83;;;;;;;2.79;59.75;95294.06;5131879;27;20064;-80
2021/03/02 01:43:42;;;;;;;47.05;19.05;;;;;;;2.77;59.68;95294.28;5136127;27;20019;-81
2021/03/02 01:46:08;;;;;;;34.50;16.98;;;;;;;2.76;59.86;95299.75;5149641;27;20026;-80
2021/03/02 01:48:40;;;;;;;33.00;13.65;;;;;;;2.72;59.68;95296.78;5146647;27;20033;-80
2021/03/02 01:51:07;;;;;;;;;;;;;;;2.71;59.49;95297.03;5151242;27;20121;-80
2021/03/02 01:53:33;;;;;;;44.83;18.85;;;;;;;2.62;59.73;95299.19;5134101;27;19991;-80
2021/03/02 01:55:59;;;;;;;48.88;23.55;;;;;;;2.59;60.34;95297.00;5129489;27;20031;-80
2021/03/02 01:58:28;;;;;;;53.42;24.67;;;;;;;2.53;60.08;95301.34;5131023;27;20027;-79
2021/03/02 02:00:59;;;;;;;49.45;23.02;;;;;;;2.63;60.07;95318.44;5147434;27;20022;-80
2021/03/02 02:03:33;;;;;;;42.80;21.13;;;;;;;2.62;59.94;95304.44;5152100;27;20018;-79
2021/03/02 02:06:18;;;;;;;43.92;18.55;;;;;;;2.56;60.11;95297.47;5136724;27;20035;-80
2021/03/02 02:09:27;;;;;;;42.03;21.42;;;;;;;2.44;60.74;95302.69;5151500;27;20018;-79
2021/03/02 02:12:06;;;;;;;33.95;18.65;;;;;;;2.41;61.10;95292.63;5109086;27;20031;-79
2021/03/02 02:14:46;;;;;;;48.53;24.83;;;;;;;2.46;61.45;95284.84;5131804;27;20057;-79
2021/03/02 02:17:30;;;;;;;42.92;23.27;;;;;;;2.35;61.53;95293.53;5137318;27;20031;-80
2021/03/02 02:20:00;;;;;;;46.78;24.65;;;;;;;2.36;61.66;95295.13;5151195;27;20042;-79
2021/03/02 02:23:11;;;;;;;51.38;26.67;;;;;;;2.33;61.69;95288.50;5133003;27;20023;-80
2021/03/02 02:26:09;;;;;;;52.97;25.00;;;;;;;2.35;61.82;95289.06;5113743;27;20039;-80
2021/03/02 02:28:36;;;;;;;47.97;23.20;;;;;;;2.36;61.62;95284.59;5130918;27;20382;-79
2021/03/02 02:31:04;;;;;;;44.50;23.08;;;;;;;2.33;61.59;95282.44;5129702;27;20023;-80
2021/03/02 02:33:36;;;;;;;43.55;22.40;;;;;;;2.31;61.64;95292.38;5131138;27;20710;-80
2021/03/02 02:36:03;;;;;;;46.05;24.70;;;;;;;2.05;62.59;95304.09;5151143;27;20030;-80
2021/03/02 02:38:29;;;;;;;45.47;23.92;;;;;;;2.04;62.18;95313.81;5136726;27;20072;-79
2021/03/02 02:40:56;;;;;;;40.65;21.83;;;;;;;1.98;61.56;95309.44;5130594;27;20030;-80
2021/03/02 02:43:23;;;;;;;40.08;19.95;;;;;;;1.91;61.75;95317.41;5131434;27;20023;-79
2021/03/02 02:45:50;;;;;;;32.08;16.00;;;;;;;1.71;62.58;95315.06;5130432;27;20444;-79
2021/03/02 02:48:17;;;;;;;33.92;16.15;;;;;;;1.52;63.64;95319.50;5128787;27;20034;-78
2021/03/02 02:50:46;;;;;;;35.60;16.35;;;;;;;1.33;64.34;95323.97;5129297;27;20019;-79
2021/03/02 02:53:13;;;;;;;35.00;17.20;;;;;;;1.24;64.88;95314.78;5132420;27;20425;-79
2021/03/02 02:55:44;;;;;;;34.28;16.17;;;;;;;1.15;65.21;95310.84;5150700;27;20029;-78
2021/03/02 02:58:10;;;;;;;31.85;15.85;;;;;;;1.08;66.08;95312.72;5141028;27;20027;-78
2021/03/02 03:00:37;;;;;;;26.13;14.80;;;;;;;1.01;66.30;95307.53;5150771;27;20163;-79
2021/03/02 03:03:08;;;;;;;26.27;14.23;;;;;;;0.99;66.82;95301.72;5125553;27;20415;-79
2021/03/02 03:05:35;;;;;;;27.05;13.40;;;;;;;1.02;66.65;95317.03;5109710;28;20047;-79
2021/03/02 03:08:11;;;;;;;26.38;14.85;;;;;;;1.07;66.69;95319.00;5109950;28;20023;-79
2021/03/02 03:10:38;;;;;;;32.70;15.30;;;;;;;1.12;66.74;95327.84;5109995;28;20490;-79
2021/03/02 03:13:06;;;;;;;30.83;14.60;;;;;;;1.14;66.42;95319.72;5108253;28;20054;-79
2021/03/02 03:15:36;;;;;;;32.22;16.05;;;;;;;1.27;65.91;95319.59;5107996;28;20138;-79
2021/03/02 03:18:06;;;;;;;31.67;15.65;;;;;;;1.30;65.63;95319.16;5125365;28;20027;-80
2021/03/02 03:20:32;;;;;;;31.20;16.25;;;;;;;1.35;65.24;95334.28;5109604;28;20020;-79
2021/03/02 03:22:59;;;;;;;30.17;15.70;;;;;;;1.41;65.29;95330.78;5109613;28;20053;-80
2021/03/02 03:25:25;;;;;;;32.67;14.88;;;;;;;1.44;65.00;95325.06;5108261;28;20019;-79
2021/03/02 03:27:56;;;;;;;26.25;13.00;;;;;;;1.46;64.92;95328.28;5109771;28;20034;-80
2021/03/02 03:30:27;;;;;;;34.20;14.60;;;;;;;1.49;64.37;95334.94;5108135;28;20022;-79
2021/03/02 03:33:02;;;;;;;29.98;14.23;;;;;;;1.49;64.67;95340.19;5125289;28;20027;-79
2021/03/02 03:35:28;;;;;;;27.27;13.52;;;;;;;1.47;64.55;95344.88;5107922;28;20035;-79
2021/03/02 03:37:54;;;;;;;29.95;14.02;;;;;;;1.52;64.54;95331.84;5108348;28;20368;-80
2021/03/02 03:40:21;;;;;;;35.65;13.95;;;;;;;1.50;64.57;95323.38;5109528;28;20457;-80
2021/03/02 03:42:46;;;;;;;30.98;13.35;;;;;;;1.48;64.54;95333.31;5107965;28;20108;-79
2021/03/02 03:45:13;;;;;;;25.85;13.27;;;;;;;1.51;64.28;95325.00;5109687;28;20051;-80
2021/03/02 03:47:38;;;;;;;26.30;12.35;;;;;;;1.55;63.84;95331.44;5125281;28;20034;-79
2021/03/02 03:50:05;;;;;;;20.88;9.98;;;;;;;1.62;63.76;95337.41;5109326;28;20024;-79
2021/03/02 03:52:33;;;;;;;21.25;9.00;;;;;;;1.63;63.40;95335.56;5107294;28;20050;-80
2021/03/02 03:55:00;;;;;;;21.50;9.52;;;;;;;1.58;63.19;95334.41;5108585;28;20092;-78
2021/03/02 03:57:27;;;;;;;16.98;9.10;;;;;;;1.59;62.63;95338.66;5124969;28;20055;-78
2021/03/02 03:59:53;;;;;;;14.65;8.45;;;;;;;1.57;62.81;95334.66;5107993;28;20405;-77
2021/03/02 04:02:20;;;;;;;13.73;7.72;;;;;;;1.60;62.72;95334.19;5120470;27;20055;-78
2021/03/02 04:04:46;;;;;;;15.40;7.63;;;;;;;1.63;63.08;95333.75;5129804;27;20023;-79
2021/03/02 04:07:13;;;;;;;20.85;9.65;;;;;;;1.69;62.47;95335.50;5130031;27;20031;-80
2021/03/02 04:09:40;;;;;;;16.48;8.63;;;;;;;1.71;61.82;95336.09;5129719;27;20549;-80
2021/03/02 04:12:11;;;;;;;18.10;8.65;;;;;;;1.62;62.40;95339.22;5128451;27;20050;-80
2021/03/02 04:14:37;;;;;;;14.23;8.23;;;;;;;1.59;62.38;95343.09;5128220;28;20031;-80
2021/03/02 04:17:04;;;;;;;15.38;7.88;;;;;;;1.57;62.19;95337.28;5129633;27;20418;-79
2021/03/02 04:19:30;;;;;;;14.32;7.50;;;;;;;1.57;62.05;95335.44;5131079;27;20020;-79
2021/03/02 04:21:56;;;;;;;18.25;7.50;;;;;;;1.59;62.12;95335.22;5133333;27;20023;-79
2021/03/02 04:24:21;;;;;;;12.38;8.05;;;;;;;1.60;61.75;95334.97;5133430;27;20412;-79
2021/03/02 04:26:47;;;;;;;15.98;8.05;;;;;;;1.58;61.86;95334.41;5133113;27;20031;-80
2021/03/02 04:29:12;;;;;;;16.42;8.60;;;;;;;1.58;61.75;95330.97;5133476;27;20382;-80
2021/03/02 04:31:38;;;;;;;15.85;8.52;;;;;;;1.58;61.65;95344.13;5133248;27;20042;-79
2021/03/02 04:34:03;;;;;;;21.17;8.73;;;;;;;1.56;61.48;95338.28;5119043;27;20100;-79
2021/03/02 04:36:28;;;;;;;22.45;9.73;;;;;;;1.53;61.63;95333.47;5131771;27;20542;-79
2021/03/02 04:38:54;;;;;;;28.88;11.02;;;;;;;1.51;61.60;95335.53;5132988;27;20022;-79
2021/03/02 04:41:19;;;;;;;25.58;10.20;;;;;;;1.52;61.08;95337.13;5132911;27;20050;-79
2021/03/02 04:43:45;;;;;;;36.13;12.43;;;;;;;1.53;61.04;95336.91;5133270;27;20022;-79
2021/03/02 04:46:10;;;;;;;36.72;12.27;;;;;;;1.54;60.89;95340.31;5127517;27;20517;-80
2021/03/02 04:48:36;;;;;;;32.83;10.95;;;;;;;1.55;60.43;95344.56;5117419;27;20020;-79
2021/03/02 04:51:02;;;;;;;30.48;10.55;;;;;;;1.49;60.72;95345.44;5132952;27;20026;-80
2021/03/02 04:53:28;;;;;;;22.65;9.13;;;;;;;1.37;61.01;95340.91;5145975;27;20076;-76
2021/03/02 04:55:54;;;;;;;17.50;7.85;;;;;;;1.25;61.21;95347.91;5148589;27;20023;-80
2021/03/02 04:58:19;;;;;;;16.65;8.20;;;;;;;1.14;62.69;95352.06;5132780;27;20030;-80
2021/03/02 05:00:44;;;;;;;21.17;8.63;;;;;;;1.07;63.05;95346.06;5132651;27;20027;-80
2021/03/02 05:03:10;;;;;;;17.33;7.85;;;;;;;1.06;62.88;95344.47;5131198;27;20047;-80
2021/03/02 05:05:35;;;;;;;14.82;7.80;;;;;;;1.03;63.11;95346.72;5148619;27;20048;-80
2021/03/02 05:08:01;;;;;;;19.30;9.80;;;;;;;1.07;63.76;95348.69;5114157;27;20409;-80
2021/03/02 05:10:26;;;;;;;20.20;10.00;;;;;;;1.10;63.62;95360.56;5129737;27;20016;-81
2021/03/02 05:12:51;;;;;;;27.77;14.50;;;;;;;1.17;63.48;95363.94;5132185;27;20134;-80
2021/03/02 05:15:17;;;;;;;27.67;12.45;;;;;;;1.24;63.41;95356.78;5130785;27;20106;-80
2021/03/02 05:17:42;;;;;;;24.50;12.93;;;;;;;1.23;63.94;95352.56;5130975;27;20019;-80
2021/03/02 05:20:08;;;;;;;27.67;11.60;;;;;;;1.29;63.69;95354.34;5132277;27;20402;-79
2021/03/02 05:22:34;;;;;;;23.52;10.48;;;;;;;1.36;63.45;95362.13;5130869;27;20023;-80
2021/03/02 05:24:59;;;;;;;23.88;11.18;;;;;;;1.35;63.17;95363.19;5130480;27;20070;-80
2021/03/02 05:27:25;;;;;;;25.20;11.68;;;;;;;1.37;63.35;95367.19;5131944;27;20057;-80
2021/03/02 05:29:50;;;;;;;23.85;11.82;;;;;;;1.42;63.28;95365.72;5131950;27;20410;-80
2021/03/02 05:32:16;;;;;;;24.50;11.48;;;;;;;1.48;63.17;95373.53;5130481;27;20110;-80
2021/03/02 05:34:41;;;;;;;24.88;12.68;;;;;;;1.52;62.83;95373.91;5143479;27;20034;-80
2021/03/02 05:37:06;;;;;;;23.35;10.63;;;;;;;1.57;62.69;95371.44;5130254;27;20413;-80
2021/03/02 05:39:32;;;;;;;25.40;12.02;;;;;;;1.64;62.96;95366.91;5131472;27;20046;-80
2021/03/02 05:42:00;;;;;;;20.83;10.05;;;;;;;1.71;62.43;95367.63;5131612;27;20035;-80
2021/03/02 05:44:26;;;;;;;33.60;12.75;;;;;;;1.79;62.25;95369.97;5131640;27;20110;-80
2021/03/02 05:46:52;;;;;;;35.38;14.55;;;;;;;1.83;62.65;95372.94;5131640;27;20063;-80
2021/03/02 05:49:17;;;;;;;31.58;14.68;;;;;;;1.89;62.37;95364.16;5131510;27;20478;-80
2021/03/02 05:51:43;;;;;;;30.50;13.40;;;;;;;1.97;62.51;95371.78;5144409;27;20046;-80
2021/03/02 05:54:10;;;;;;;29.45;15.63;;;;;;;2.07;62.44;95378.31;5147326;27;20039;-80
2021/03/02 05:56:40;;;;;;;47.25;19.15;;;;;;;2.07;62.17;95371.22;5129995;27;20023;-80
2021/03/02 05:59:06;;;;;;;37.50;18.85;;;;;;;2.09;62.18;95374.44;5131415;27;20027;-80
2021/03/02 06:01:31;;;;;;;34.30;17.08;;;;;;;2.06;62.53;95376.72;5123510;27;20400;-79
2021/03/02 06:03:57;;;;;;;45.97;20.55;;;;;;;2.11;62.88;95376.84;5129501;27;20064;-80
2021/03/02 06:06:23;;;;;;;43.08;19.55;;;;;;;2.14;62.46;95386.94;5121539;27;20110;-81
2021/03/02 06:08:48;;;;;;;47.00;21.08;;;;;;;2.19;62.31;95377.34;5125330;27;20035;-79
2021/03/02 06:11:34;;;;;;;48.25;21.70;;;;;;;2.23;62.54;95375.06;5118469;27;20047;-81
2021/03/02 06:14:22;;;;;;;40.95;19.33;;;;;;;2.28;61.81;95387.53;5118428;27;20443;-80
2021/03/02 06:16:50;;;;;;;32.40;17.00;;;;;;;2.28;62.13;95388.38;5124727;27;20079;-80
2021/03/02 06:19:16;;;;;;;49.60;19.33;;;;;;;2.35;61.58;95383.81;5110149;27;20081;-81
2021/03/02 06:21:43;;;;;;;49.83;18.50;;;;;;;2.41;61.39;95376.84;5121538;27;20106;-80
2021/03/02 06:24:09;;;;;;;57.40;20.33;;;;;;;2.41;61.73;95382.09;5121841;27;20022;-81
2021/03/02 06:26:37;;;;;;;58.20;20.00;;;;;;;2.47;62.01;95381.22;5110252;28;20075;-81
2021/03/02 06:29:14;;;;;;;47.28;17.95;;;;;;;2.55;61.02;95388.78;5110713;27;20402;-80
2021/03/02 06:31:41;;;;;;;46.25;18.90;;;;;;;2.57;60.80;95391.19;5114061;27;20027;-82
2021/03/02 06:34:12;;;;;;;49.60;20.13;;;;;;;2.59;61.00;95392.56;5108116;28;20562;-81
2021/03/02 06:37:05;;;;;;;35.05;16.15;;;;;;;2.67;60.73;95401.97;5111830;27;20047;-81
2021/03/02 06:39:36;;;;;;;43.08;15.82;;;;;;;2.70;60.61;95398.09;5101207;28;20737;-80
2021/03/02 06:42:22;;;;;;;32.33;13.68;;;;;;;2.76;59.74;95402.47;5125483;27;20027;-81
2021/03/02 06:44:49;;;;;;;34.55;13.30;;;;;;;2.82;59.77;95398.91;5119960;27;20019;-81
2021/03/02 06:47:37;;;;;;;28.67;13.75;;;;;;;2.83;59.55;95399.72;5110291;28;20030;-81
2021/03/02 06:50:22;;;;;;;26.52;13.38;;;;;;;2.91;59.38;95397.56;5110348;28;20428;-81
2021/03/02 06:52:47;;;;;;;36.25;15.45;;;;;;;2.94;59.82;95412.13;5121533;27;20046;-81
2021/03/02 06:55:16;;;;;;;31.17;14.02;;;;;;;2.99;59.75;95406.94;5109772;28;20036;-80
2021/03/02 06:57:49;;;;;;;26.65;12.77;;;;;;;3.09;59.57;95398.50;5114131;27;20061;-80
2021/03/02 07:00:16;;;;;;;34.60;14.35;;;;;;;3.18;58.88;95407.69;5109910;28;20476;-81
2021/03/02 07:02:43;;;;;;;26.08;12.40;;;;;;;3.25;58.48;95403.09;5124943;27;20130;-80
2021/03/02 07:05:11;;;;;;;33.83;14.30;;;;;;;3.36;58.34;95404.94;5112439;28;20028;-81
2021/03/02 07:07:54;;;;;;;33.83;16.13;;;;;;;3.40;58.02;95390.25;5110670;27;20497;-78
2021/03/02 07:10:19;;;;;;;;;;;;;;;3.41;58.23;95394.50;5115649;28;20088;-81
2021/03/02 07:12:45;;;;;;;22.90;11.20;;;;;;;3.50;56.89;95394.13;5129244;27;20359;-80
2021/03/02 07:15:18;;;;;;;27.38;13.43;;;;;;;3.54;56.66;95390.84;5129276;27;20142;-80
2021/03/02 07:17:46;;;;;;;34.55;15.05;;;;;;;3.64;57.49;95392.88;5129397;27;20083;-82
2021/03/02 07:20:13;;;;;;;37.10;16.83;;;;;;;3.74;57.84;95379.88;5129208;28;20031;-83
2021/03/02 07:22:40;;;;;;;37.63;16.88;;;;;;;3.86;57.55;95389.63;5118954;27;20038;-81
2021/03/02 07:25:09;;;;;;;37.35;16.77;;;;;;;3.90;57.51;95388.13;5122875;28;20449;-79
2021/03/02 07:27:39;;;;;;;37.60;16.83;;;;;;;4.01;57.05;95389.94;5113578;28;20026;-80
2021/03/02 07:30:05;;;;;;;47.47;15.50;;;;;;;4.07;56.08;95385.53;5116732;27;20036;-80
2021/03/02 07:32:31;;;;;;;40.92;19.25;;;;;;;4.14;56.26;95389.66;5118110;28;20055;-80
2021/03/02 07:34:58;;;;;;;41.72;18.02;;;;;;;4.20;56.26;95391.34;5108655;28;20039;-78
2021/03/02 07:37:24;;;;;;;27.42;14.43;;;;;;;4.26;55.20;95386.19;5122970;27;20071;-79
2021/03/02 07:40:04;;;;;;;22.73;12.02;;;;;;;4.29;53.50;95389.13;5130039;27;20095;-78
2021/03/02 07:42:30;;;;;;;26.70;12.70;;;;;;;4.35;52.98;95382.91;5126467;27;20027;-78
2021/03/02 07:45:11;;;;;;;33.25;14.27;;;;;;;4.40;53.88;95388.31;5116805;28;20024;-79
2021/03/02 07:47:54;;;;;;;38.63;17.42;;;;;;;4.54;54.16;95394.09;5128668;28;20035;-78
2021/03/02 07:50:20;;;;;;;;;;;;;;;4.60;53.30;95379.94;5118961;28;20072;-79
2021/03/02 07:52:47;;;;;;;31.60;14.10;;;;;;;4.66;52.37;95380.00;5128134;27;19907;-78
2021/03/02 07:55:20;;;;;;;39.15;15.65;;;;;;;4.70;52.68;95381.13;5120058;27;20037;-78
2021/03/02 07:57:47;;;;;;;41.28;16.02;;;;;;;4.72;53.12;95385.16;5113761;27;20020;-78
2021/03/02 08:00:18;;;;;;;32.40;14.05;;;;;;;4.83;51.56;95386.13;5129718;27;20113;-73
2021/03/02 08:02:43;;;;;;;35.72;11.75;;;;;;;4.86;50.25;95380.34;5125489;27;20467;-75
2021/03/02 08:05:27;;;;;;;29.27;13.25;;;;;;;4.81;51.04;95378.44;5111340;28;20051;-72
2021/03/02 08:08:28;;;;;;;24.67;11.90;;;;;;;4.93;50.42;95375.72;5111522;28;20391;-72
2021/03/02 08:10:56;;;;;;;32.25;13.48;;;;;;;4.99;50.82;95377.41;5030009;28;20109;-74
2021/03/02 08:13:35;;;;;;;31.55;14.82;;;;;;;5.15;51.10;95364.41;5108615;27;20509;-73
2021/03/02 08:16:02;;;;;;;29.80;14.38;;;;;;;5.23;51.23;95377.22;5111070;28;20077;-73
2021/03/02 08:18:39;;;;;;;32.13;15.32;;;;;;;5.18;51.43;95379.81;5112341;28;20039;-73
2021/03/02 08:21:31;;;;;;;34.38;15.05;;;;;;;5.24;51.24;95381.47;5112097;28;20110;-73
2021/03/02 08:23:58;;;;;;;34.38;15.88;;;;;;;5.26;50.85;95384.69;5108404;28;20036;-73
2021/03/02 08:26:28;;;;;;;37.90;14.02;;;;;;;5.29;49.91;95381.56;5112181;28;20030;-75
2021/03/02 08:29:06;;;;;;;42.75;15.07;;;;;;;5.16;50.49;95372.09;5112233;28;20028;-74
2021/03/02 08:31:33;;;;;;;31.98;12.93;;;;;;;5.18;50.53;95372.66;5110788;28;20116;-74
2021/03/02 08:34:00;;;;;;;24.75;13.45;;;;;;;5.31;49.98;95374.19;5112094;27;20114;-74
2021/03/02 08:36:26;;;;;;;27.95;13.02;;;;;;;5.35;49.71;95374.50;5111787;27;20024;-77
2021/03/02 08:38:52;;;;;;;30.00;12.23;;;;;;;5.30;49.55;95375.22;5111882;28;20094;-76
2021/03/02 08:41:32;;;;;;;30.77;11.93;;;;;;;5.48;49.52;95370.72;5127850;27;20027;-74
2021/03/02 08:43:59;;;;;;;24.42;11.50;;;;;;;5.59;48.10;95373.25;5111007;28;20035;-77
2021/03/02 08:46:29;;;;;;;23.73;10.20;;;;;;;5.67;47.15;95365.94;5112141;28;20055;-74
2021/03/02 08:48:55;;;;;;;26.55;11.93;;;;;;;5.79;46.56;95358.69;5112184;28;20175;-74
2021/03/02 08:51:25;;;;;;;18.80;9.45;;;;;;;5.81;45.57;95360.03;5111870;28;20032;-75
2021/03/02 08:53:52;;;;;;;18.50;8.75;;;;;;;5.86;43.54;95351.34;5111698;28;20028;-75
2021/03/02 08:56:24;;;;;;;33.38;11.95;;;;;;;5.96;46.10;95353.34;5111673;28;20035;-75
2021/03/02 08:59:03;;;;;;;28.30;11.30;;;;;;;6.03;46.56;95353.97;5111233;28;20020;-74
2021/03/02 09:01:30;;;;;;;24.83;12.20;;;;;;;6.00;46.48;95350.00;5117817;27;20497;-75
2021/03/02 09:04:15;;;;;;;12.05;7.13;;;;;;;6.15;42.91;95357.28;5151762;27;20022;-75
2021/03/02 09:06:48;;;;;;;10.52;4.15;;;;;;;6.16;40.25;95356.22;5152282;27;20023;-74
2021/03/02 09:09:21;;;;;;;13.88;5.22;;;;;;;6.26;40.31;95354.75;5152716;27;20106;-73
2021/03/02 09:11:52;;;;;;;10.38;4.28;;;;;;;6.29;38.87;95348.94;5134087;27;20030;-74
2021/03/02 09:14:19;;;;;;;10.68;4.07;;;;;;;6.38;39.33;95353.56;5134230;27;20015;-76
2021/03/02 09:16:49;;;;;;;10.40;3.42;;;;;;;6.49;38.40;95359.75;5128972;27;20054;-75
2021/03/02 09:19:26;;;;;;;10.20;4.22;;;;;;;6.62;37.67;95359.34;5132048;27;20489;-76
2021/03/02 09:21:58;;;;;;;8.60;3.97;;;;;;;6.79;36.59;95358.44;5131399;27;20041;-75
2021/03/02 09:24:25;;;;;;;10.07;4.43;;;;;;;6.75;36.81;95358.13;5133938;27;20062;-74
2021/03/02 09:26:52;;;;;;;6.75;4.22;;;;;;;6.75;35.89;95370.59;5133673;27;20263;-76
2021/03/02 09:29:18;;;;;;;7.63;3.90;;;;;;;6.73;36.04;95364.75;5133723;27;20033;-76
2021/03/02 09:31:44;;;;;;;21.90;4.28;;;;;;;6.80;36.35;95365.34;5137368;27;20478;-76
2021/03/02 09:34:10;;;;;;;7.80;4.45;;;;;;;6.80;36.35;95360.84;5128327;27;20129;-73
2021/03/02 09:36:36;;;;;;;7.90;3.83;;;;;;;6.86;36.50;95361.69;5130138;27;20031;-76
2021/03/02 09:39:20;;;;;;;7.93;4.45;;;;;;;6.88;37.35;95356.94;5140859;27;20097;-79
2021/03/02 09:41:47;;;;;;;16.10;4.80;;;;;;;6.99;37.46;95358.59;5145144;27;20375;-76
2021/03/02 09:44:20;;;;;;;9.88;5.28;;;;;;;7.11;37.50;95355.00;5131242;27;20045;-75
2021/03/02 09:46:47;;;;;;;9.15;4.53;;;;;;;7.07;37.19;95348.59;5146827;27;20030;-74
2021/03/02 09:49:28;;;;;;;7.70;4.13;;;;;;;7.13;37.52;95339.63;5151825;27;20030;-75
2021/03/02 09:51:54;;;;;;;12.00;5.13;;;;;;;7.27;37.56;95338.13;5144569;27;20508;-76
2021/03/02 09:54:19;;;;;;;10.93;4.85;;;;;;;7.31;36.75;95355.13;5130980;27;20031;-75
2021/03/02 09:57:05;;;;;;;14.88;5.38;;;;;;;7.17;37.33;95343.38;5133285;27;20030;-73
2021/03/02 09:59:30;;;;;;;12.63;4.90;;;;;;;7.15;37.17;95345.47;5143161;27;20085;-74
2021/03/02 10:02:00;;;;;;;15.23;4.63;;;;;;;7.09;37.46;95351.81;5133056;27;20413;-74
2021/03/02 10:04:26;;;;;;;11.50;3.95;;;;;;;7.13;37.48;95347.59;5151523;27;20109;-73
2021/03/02 10:06:51;;;;;;;11.30;4.60;;;;;;;7.08;38.05;95343.03;5151671;27;20527;-73
2021/03/02 10:09:26;;;;;;;8.20;4.25;;;;;;;7.19;37.98;95343.91;5140250;27;20481;-74
2021/03/02 10:12:08;;;;;;;10.95;4.68;;;;;;;7.25;37.67;95332.28;5151443;27;20030;-74
2021/03/02 10:14:36;;;;;;;8.85;5.63;;;;;;;7.30;37.60;95327.00;5151152;27;20038;-75
2021/03/02 10:17:01;;;;;;;10.00;4.53;;;;;;;7.36;37.93;95333.94;5148779;27;20026;-75
2021/03/02 10:19:29;;;;;;;10.05;4.70;;;;;;;7.21;37.66;95325.91;5130612;27;20504;-75
2021/03/02 10:21:57;;;;;;;11.32;4.50;;;;;;;7.28;38.55;95323.00;5132748;27;20113;-74
2021/03/02 10:24:34;;;;;;;8.25;3.95;;;;;;;7.27;38.73;95316.91;5132830;27;20030;-75
2021/03/02 10:27:10;;;;;;;7.40;4.03;;;;;;;7.36;38.52;95320.66;5151189;27;20015;-74
2021/03/02 10:29:36;;;;;;;9.27;3.83;;;;;;;7.38;38.07;95331.81;5132538;27;20050;-74
2021/03/02 10:32:04;;;;;;;5.72;3.33;;;;;;;7.29;38.45;95311.38;5132692;27;20054;-75
2021/03/02 10:34:34;;;;;;;8.50;3.65;;;;;;;7.34;39.03;95314.03;5132293;27;20105;-74
2021/03/02 10:37:00;;;;;;;8.35;4.00;;;;;;;7.36;38.75;95298.66;5141601;27;20026;-74
2021/03/02 10:39:26;;;;;;;7.05;3.22;;;;;;;7.46;38.79;95309.31;5130410;27;20050;-74
2021/03/02 10:41:51;;;;;;;8.93;3.85;;;;;;;7.57;37.89;95310.16;5128053;27;20027;-75
2021/03/02 10:44:17;;;;;;;6.57;4.05;;;;;;;7.61;38.10;95300.63;5132708;27;20063;-75
2021/03/02 10:46:43;;;;;;;7.50;4.28;;;;;;;7.57;37.87;95299.56;5150858;27;20023;-77
2021/03/02 10:49:09;;;;;;;9.00;4.30;;;;;;;7.55;38.08;95307.78;5137998;27;20113;-77
2021/03/02 10:51:34;;;;;;;10.07;3.83;;;;;;;7.67;38.92;95294.28;5132358;27;20136;-76
2021/03/02 10:54:00;;;;;;;8.20;3.88;;;;;;;7.84;37.84;95284.28;5150750;27;20408;-76
2021/03/02 10:56:26;;;;;;;9.55;5.10;;;;;;;7.89;37.40;95285.34;5131756;27;20023;-76
2021/03/02 10:58:52;;;;;;;8.52;3.88;;;;;;;7.86;37.20;95283.22;5136439;27;20047;-76
2021/03/02 11:01:19;;;;;;;6.53;4.00;;;;;;;7.87;37.62;95282.16;5130100;27;20043;-76
2021/03/02 11:03:44;;;;;;;8.80;3.72;;;;;;;7.86;36.94;95276.06;5130424;27;20027;-76
2021/03/02 11:06:12;;;;;;;6.60;3.75;;;;;;;7.81;36.96;95266.22;5147978;27;20113;-76
2021/03/02 11:08:39;;;;;;;11.95;4.03;;;;;;;7.88;37.69;95257.22;5134994;27;20095;-76
2021/03/02 11:11:05;;;;;;;8.32;3.72;;;;;;;8.12;38.11;95262.84;5131905;27;20080;-76
2021/03/02 11:13:30;;;;;;;10.55;4.20;;;;;;;8.40;36.55;95258.91;5131952;27;20050;-76
2021/03/02 11:15:58;;;;;;;9.98;4.13;;;;;;;8.54;35.81;95248.56;5147681;27;20056;-75
2021/03/02 11:18:23;;;;;;;7.38;3.75;;;;;;;8.62;36.19;95246.19;5150776;27;20034;-75
2021/03/02 11:20:49;;;;;;;8.40;4.47;;;;;;;8.80;36.75;95231.56;5137937;27;20545;-77
2021/03/02 11:23:14;;;;;;;14.52;4.85;;;;;;;8.95;35.81;95236.03;5150516;27;20022;-76
2021/03/02 11:25:41;;;;;;;19.35;4.95;;;;;;;9.02;34.99;95238.44;5140182;27;20073;-76
2021/03/02 11:28:11;;;;;;;10.10;4.00;;;;;;;9.14;34.89;95235.47;5134368;27;20417;-75
2021/03/02 11:30:37;;;;;;;7.55;4.32;;;;;;;9.02;34.79;95230.47;5154692;27;20025;-77
2021/03/02 11:33:03;;;;;;;8.23;3.97;;;;;;;8.88;34.33;95227.56;5136086;27;20103;-72
2021/03/02 11:35:29;;;;;;;8.68;3.83;;;;;;;8.91;35.13;95221.69;5136142;27;20015;-72
2021/03/02 11:37:54;;;;;;;7.10;3.67;;;;;;;8.90;34.20;95216.66;5135218;27;20030;-73